Millbrook, Alabama
Current Conditions -  °F | °C
As of 9:58 AM on Thursday 30 Oct 2014 (Local Time) from KMXF Reporting Station
Clear Clear  
Wind Chill: 61°   Ceiling: Unl
Heat Index: 61°   Visibility: 10mi
Dew Point: 46°   Wind: 9mph
Humidity: 59%   Direction: 20°NNE
Pressure: 30.12"   Gusts: NA
Location:  32.48°N, 86.36°W
Report Text: KMXF 301458Z 02008KT 10SM CLR 16/08 A3012 RMK AO2A SLP202 52009 $
Loading
Personal Weather Stations






























Interactive Weather Map
Tropical Storm Tracking
New forecast layout! Learn more

10-Day Weather Forecast

Advertisements
Track Severe Weather on mobile